createdAt,value
2019-05-07T00:01:54.811Z,53.20
2019-05-07T00:04:22.469Z,52.50
2019-05-07T00:06:52.709Z,51.70
2019-05-07T00:09:20.542Z,51.30
2019-05-07T00:11:48.581Z,51.70
2019-05-07T00:14:16.526Z,52.30
2019-05-07T00:16:44.498Z,53.00
2019-05-07T00:19:13.030Z,56.30
2019-05-07T00:21:42.458Z,56.00
2019-05-07T00:24:12.971Z,53.70
2019-05-07T00:26:42.918Z,52.20
2019-05-07T00:29:12.798Z,51.10
2019-05-07T00:31:41.956Z,51.00
2019-05-07T00:34:12.463Z,50.20
2019-05-07T00:36:48.887Z,50.50
2019-05-07T00:39:34.207Z,54.00
2019-05-07T00:42:25.076Z,54.60
2019-05-07T00:45:13.146Z,54.00
2019-05-07T00:47:28.749Z,52.20
2019-05-07T00:49:59.734Z,53.60
2019-05-07T00:52:27.642Z,54.30
2019-05-07T00:54:55.631Z,50.70
2019-05-07T00:57:43.053Z,50.80
2019-05-07T01:00:13.120Z,50.90
2019-05-07T01:02:43.105Z,50.30
2019-05-07T01:05:12.268Z,50.90
2019-05-07T01:07:41.968Z,50.60
2019-05-07T01:10:10.073Z,52.50
2019-05-07T01:12:37.976Z,57.50
2019-05-07T01:15:06.159Z,58.20
2019-05-07T01:17:34.073Z,57.80
2019-05-07T01:20:02.962Z,58.20
2019-05-07T01:22:33.074Z,58.40
2019-05-07T01:25:02.273Z,58.20
2019-05-07T01:27:32.174Z,59.30
2019-05-07T01:30:02.503Z,59.30
2019-05-07T01:32:47.647Z,60.00
2019-05-07T01:35:22.396Z,60.10
2019-05-07T01:37:52.308Z,60.20
2019-05-07T01:40:22.711Z,60.80
2019-05-07T01:42:52.839Z,60.70
2019-05-07T01:45:24.940Z,61.20
2019-05-07T01:47:53.215Z,60.90
2019-05-07T01:50:22.697Z,61.00
2019-05-07T01:52:52.245Z,61.40
2019-05-07T01:55:22.410Z,61.50
2019-05-07T01:57:52.232Z,61.80
2019-05-07T02:00:22.285Z,62.30
2019-05-07T02:02:55.486Z,63.80
2019-05-07T02:05:32.501Z,62.80
2019-05-07T02:08:03.050Z,64.40
2019-05-07T02:10:39.332Z,65.00
2019-05-07T02:13:07.305Z,64.90
2019-05-07T02:15:35.287Z,64.00
2019-05-07T02:18:03.367Z,63.90
2019-05-07T02:20:32.193Z,63.80
2019-05-07T02:23:02.581Z,63.60
2019-05-07T02:25:32.526Z,63.40
2019-05-07T02:28:02.110Z,63.50
2019-05-07T02:30:29.926Z,63.50
2019-05-07T02:32:57.812Z,64.20
2019-05-07T02:35:25.789Z,64.50
2019-05-07T02:38:03.154Z,66.90
2019-05-07T02:40:53.256Z,67.00
2019-05-07T02:43:22.618Z,67.10
2019-05-07T02:46:22.347Z,66.90
2019-05-07T02:48:54.488Z,67.20
2019-05-07T02:51:28.481Z,66.80
2019-05-07T02:54:24.289Z,68.30
2019-05-07T02:56:53.290Z,68.40
2019-05-07T02:59:23.342Z,69.40
2019-05-07T03:01:53.605Z,69.60
2019-05-07T03:04:20.886Z,69.40
2019-05-07T03:06:48.743Z,69.20
2019-05-07T03:09:16.626Z,69.10
2019-05-07T03:11:44.517Z,69.20
2019-05-07T03:14:13.936Z,68.40
2019-05-07T03:16:47.648Z,68.20
2019-05-07T03:19:13.423Z,67.20
2019-05-07T03:21:54.277Z,67.30
2019-05-07T03:24:36.181Z,67.70
2019-05-07T03:27:04.118Z,67.20
2019-05-07T03:29:33.280Z,67.40
2019-05-07T03:32:39.411Z,66.20
2019-05-07T03:35:47.138Z,67.20
2019-05-07T03:38:15.405Z,69.20
2019-05-07T03:40:44.801Z,69.60
2019-05-07T03:43:13.857Z,69.60
2019-05-07T03:46:07.796Z,69.00
2019-05-07T03:48:36.991Z,69.60
2019-05-07T03:51:04.883Z,70.00
2019-05-07T03:53:34.264Z,69.70
2019-05-07T03:56:04.019Z,69.30
2019-05-07T03:58:34.029Z,69.50
2019-05-07T04:01:13.138Z,70.70
2019-05-07T04:03:39.539Z,71.00
2019-05-07T04:06:07.398Z,71.10
2019-05-07T04:08:35.327Z,70.40
2019-05-07T04:11:04.021Z,70.40
2019-05-07T04:13:33.474Z,71.10
2019-05-07T04:16:04.002Z,70.80
2019-05-07T04:18:32.961Z,70.60
2019-05-07T04:21:03.602Z,70.30
2019-05-07T04:23:34.218Z,70.80
2019-05-07T04:26:26.801Z,71.20
2019-05-07T04:28:59.599Z,71.20
2019-05-07T04:31:33.904Z,70.00
2019-05-07T04:34:03.837Z,70.50
2019-05-07T04:36:35.143Z,70.60
2019-05-07T04:39:06.716Z,70.70
2019-05-07T04:41:34.739Z,70.30
2019-05-07T04:44:03.499Z,70.80
2019-05-07T04:46:33.337Z,70.80
2019-05-07T04:49:03.623Z,70.50
2019-05-07T04:52:03.712Z,70.70
2019-05-07T04:54:33.023Z,70.90
2019-05-07T04:57:03.627Z,71.20
2019-05-07T04:59:33.012Z,71.50
2019-05-07T05:02:09.013Z,71.70
2019-05-07T05:04:36.953Z,71.60
2019-05-07T05:07:04.952Z,70.60
2019-05-07T05:09:33.232Z,70.60
2019-05-07T05:12:02.737Z,70.90
2019-05-07T05:14:33.733Z,70.50
2019-05-07T05:17:02.118Z,69.70
2019-05-07T05:19:32.183Z,69.60
2019-05-07T05:22:07.441Z,68.50
2019-05-07T05:24:39.385Z,67.00
2019-05-07T05:27:07.354Z,66.00
2019-05-07T05:29:36.618Z,65.60
2019-05-07T05:32:04.909Z,65.30
2019-05-07T05:34:34.381Z,64.10
2019-05-07T05:37:02.559Z,63.40
2019-05-07T05:39:32.026Z,63.80
2019-05-07T05:42:08.423Z,63.60
2019-05-07T05:44:36.330Z,63.50
2019-05-07T05:47:05.237Z,62.60
2019-05-07T05:49:34.255Z,61.60
2019-05-07T05:52:16.909Z,60.50
2019-05-07T05:55:04.438Z,60.50
2019-05-07T05:57:43.335Z,59.90
2019-05-07T06:00:27.003Z,57.40
2019-05-07T06:03:13.080Z,57.70
2019-05-07T06:06:01.950Z,57.40
2019-05-07T06:08:36.238Z,56.50
2019-05-07T06:11:23.795Z,53.90
2019-05-07T06:14:02.249Z,53.10
2019-05-07T06:16:36.692Z,51.00
2019-05-07T06:19:33.478Z,50.20
2019-05-07T06:22:19.522Z,49.90
2019-05-07T06:25:08.268Z,49.60
2019-05-07T06:27:36.337Z,49.90
2019-05-07T06:30:05.195Z,50.00
2019-05-07T06:32:33.522Z,49.70
2019-05-07T06:35:03.126Z,49.40
2019-05-07T06:37:32.186Z,48.80
2019-05-07T06:40:12.148Z,47.80
2019-05-07T06:43:08.799Z,46.90
2019-05-07T06:45:42.683Z,47.00
2019-05-07T06:48:12.699Z,45.80
2019-05-07T06:50:55.597Z,45.10
2019-05-07T06:53:28.145Z,44.70
2019-05-07T06:55:57.679Z,44.70
2019-05-07T06:58:32.662Z,45.50
2019-05-07T07:01:22.652Z,45.70
2019-05-07T07:04:16.393Z,44.40
2019-05-07T07:07:01.942Z,44.60
2019-05-07T07:09:42.428Z,42.50
2019-05-07T07:12:14.437Z,42.40
2019-05-07T07:14:42.521Z,40.20
2019-05-07T07:17:12.761Z,40.60
2019-05-07T07:19:42.649Z,39.80
2019-05-07T07:22:10.102Z,40.60
2019-05-07T07:24:37.972Z,39.70
2019-05-07T07:27:08.593Z,38.90
2019-05-07T07:29:39.049Z,37.60
2019-05-07T07:32:07.352Z,37.90
2019-05-07T07:34:42.637Z,37.30
2019-05-07T07:37:36.028Z,38.00
2019-05-07T07:40:29.999Z,37.80
2019-05-07T07:42:58.262Z,37.10
2019-05-07T07:45:26.124Z,33.50
2019-05-07T07:47:54.004Z,33.30
2019-05-07T07:50:22.521Z,34.00
2019-05-07T07:52:52.799Z,34.70
2019-05-07T07:55:24.882Z,33.90
2019-05-07T07:58:09.239Z,33.30
2019-05-07T08:00:46.578Z,33.10
2019-05-07T08:03:14.487Z,32.90
2019-05-07T08:05:42.867Z,33.80
2019-05-07T08:08:12.866Z,35.00
2019-05-07T08:10:42.553Z,35.20
2019-05-07T08:13:12.247Z,35.00
2019-05-07T08:15:42.843Z,35.00
2019-05-07T08:18:11.965Z,35.20
2019-05-07T08:20:40.213Z,34.70
2019-05-07T08:23:08.146Z,34.40
2019-05-07T08:25:47.936Z,33.30
2019-05-07T08:28:17.650Z,33.50
2019-05-07T08:30:52.625Z,30.60
2019-05-07T08:33:25.356Z,31.10
2019-05-07T08:36:14.725Z,30.90
2019-05-07T08:38:53.311Z,31.80
2019-05-07T08:41:24.156Z,32.20
2019-05-07T08:44:08.210Z,31.00
2019-05-07T08:46:44.681Z,30.30
2019-05-07T08:49:13.186Z,31.40
2019-05-07T08:51:42.599Z,32.00
2019-05-07T08:54:12.376Z,31.10
2019-05-07T08:56:42.399Z,30.50
2019-05-07T08:59:12.243Z,29.70
2019-05-07T09:01:43.368Z,30.00
2019-05-07T09:04:13.973Z,30.00
2019-05-07T09:06:43.035Z,30.00
2019-05-07T09:09:13.128Z,30.60
2019-05-07T09:11:42.603Z,30.50
2019-05-07T09:14:12.567Z,30.10
2019-05-07T09:16:42.647Z,30.10
2019-05-07T09:19:12.875Z,29.90
2019-05-07T09:21:42.924Z,30.30
2019-05-07T09:24:12.227Z,29.50
2019-05-07T09:27:00.114Z,29.90
2019-05-07T09:29:43.460Z,30.30
2019-05-07T09:32:32.815Z,29.50
2019-05-07T09:35:02.294Z,29.20
2019-05-07T09:37:32.640Z,29.50
2019-05-07T09:40:02.833Z,30.40
2019-05-07T09:42:32.966Z,29.10
2019-05-07T09:45:02.008Z,29.60
2019-05-07T09:47:32.293Z,28.30
2019-05-07T09:50:05.564Z,28.80
2019-05-07T09:52:32.103Z,28.60
2019-05-07T09:55:03.778Z,27.60
2019-05-07T09:57:34.671Z,25.70
2019-05-07T10:00:02.235Z,25.10
2019-05-07T10:02:32.004Z,25.70
2019-05-07T10:05:02.394Z,24.80
2019-05-07T10:07:32.513Z,25.30
2019-05-07T10:10:03.276Z,25.90
2019-05-07T10:12:36.913Z,25.10
2019-05-07T10:15:05.122Z,24.00
2019-05-07T10:17:47.652Z,24.20
2019-05-07T10:20:22.388Z,25.30
2019-05-07T10:22:47.146Z,24.20
2019-05-07T10:25:15.086Z,24.20
2019-05-07T10:27:43.185Z,25.10
2019-05-07T10:30:12.830Z,25.60
2019-05-07T10:32:42.152Z,26.60
2019-05-07T10:35:12.720Z,24.50
2019-05-07T10:37:42.254Z,24.60
2019-05-07T10:40:13.324Z,24.20
2019-05-07T10:42:43.068Z,23.90
2019-05-07T10:45:37.245Z,24.40
2019-05-07T10:48:25.026Z,25.00
2019-05-07T10:50:54.084Z,23.90
2019-05-07T10:53:23.072Z,24.40
2019-05-07T10:55:52.277Z,24.70
2019-05-07T10:58:21.935Z,25.50
2019-05-07T11:00:49.930Z,23.80
2019-05-07T11:03:17.900Z,23.00
2019-05-07T11:05:46.278Z,22.80
2019-05-07T11:08:14.170Z,22.60
2019-05-07T11:10:42.165Z,23.10
2019-05-07T11:13:10.042Z,23.40
2019-05-07T11:15:38.813Z,23.00
2019-05-07T11:18:17.510Z,22.50
2019-05-07T11:20:50.287Z,23.60
2019-05-07T11:23:15.433Z,22.70
2019-05-07T11:25:43.311Z,22.40
2019-05-07T11:28:12.318Z,21.30
2019-05-07T11:30:42.540Z,20.90
2019-05-07T11:33:12.694Z,21.00
2019-05-07T11:35:42.251Z,20.90
2019-05-07T11:38:18.606Z,22.00
2019-05-07T11:40:42.472Z,21.90
2019-05-07T11:43:22.102Z,22.50
2019-05-07T11:45:59.178Z,21.90
2019-05-07T11:48:28.089Z,22.70
2019-05-07T11:51:18.621Z,22.80
2019-05-07T11:54:04.933Z,24.20
2019-05-07T11:56:33.009Z,26.10
2019-05-07T11:59:02.649Z,26.90
2019-05-07T12:01:43.880Z,26.90
2019-05-07T12:04:01.997Z,24.00
2019-05-07T12:06:32.046Z,23.70
2019-05-07T12:08:59.976Z,23.50
2019-05-07T12:11:27.958Z,23.10
2019-05-07T12:13:57.380Z,22.60
2019-05-07T12:16:25.529Z,23.90
2019-05-07T12:18:56.205Z,23.10
2019-05-07T12:21:24.392Z,22.60
2019-05-07T12:23:52.588Z,23.50
2019-05-07T12:26:22.250Z,23.70
2019-05-07T12:28:52.218Z,23.50
2019-05-07T12:31:55.437Z,22.80
2019-05-07T12:34:35.152Z,22.60
2019-05-07T12:37:03.265Z,22.70
2019-05-07T12:39:31.824Z,23.50
2019-05-07T12:41:59.961Z,21.20
2019-05-07T12:44:27.852Z,21.00
2019-05-07T12:46:55.819Z,20.30
2019-05-07T12:49:23.798Z,20.60
2019-05-07T12:52:23.694Z,20.30
2019-05-07T12:55:11.925Z,20.30
2019-05-07T12:57:42.089Z,20.50
2019-05-07T13:03:32.246Z,20.60
2019-05-07T13:05:59.952Z,20.30
2019-05-07T13:08:27.982Z,18.70
2019-05-07T13:10:55.904Z,18.10
2019-05-07T13:13:23.949Z,17.80
2019-05-07T13:15:51.978Z,19.40
2019-05-07T13:18:19.995Z,18.80
2019-05-07T13:20:48.909Z,19.10
2019-05-07T13:23:17.735Z,18.90
2019-05-07T13:25:45.655Z,19.90
2019-05-07T13:28:16.657Z,19.60
2019-05-07T13:30:44.627Z,19.00
2019-05-07T13:33:14.764Z,19.60
2019-05-07T13:35:44.365Z,19.10
2019-05-07T13:38:32.350Z,19.00
2019-05-07T13:41:38.510Z,19.50
2019-05-07T13:44:31.768Z,19.10
2019-05-07T13:47:18.630Z,19.20
2019-05-07T13:49:49.329Z,19.50
2019-05-07T13:52:17.562Z,19.90
2019-05-07T13:54:45.495Z,19.10
2019-05-07T13:57:13.444Z,18.80
2019-05-07T13:59:42.443Z,18.90
2019-05-07T14:02:13.803Z,19.30
2019-05-07T14:04:43.047Z,19.50
2019-05-07T14:07:12.677Z,19.40
2019-05-07T14:09:42.056Z,20.10
2019-05-07T14:12:12.160Z,19.90
2019-05-07T14:14:42.438Z,19.40
2019-05-07T14:17:10.081Z,20.20
2019-05-07T14:19:38.538Z,20.80
2019-05-07T14:22:15.179Z,20.40
2019-05-07T14:24:36.554Z,20.70
2019-05-07T14:27:04.569Z,20.30
2019-05-07T14:29:32.528Z,18.80
2019-05-07T14:32:22.872Z,17.70
2019-05-07T14:35:22.794Z,17.30
2019-05-07T14:37:58.162Z,16.90
2019-05-07T14:40:26.144Z,17.70
2019-05-07T14:43:06.298Z,17.20
2019-05-07T14:45:34.472Z,15.70
2019-05-07T14:48:02.984Z,15.90
2019-05-07T14:50:32.844Z,16.00
2019-05-07T14:53:02.755Z,17.40
2019-05-07T14:55:32.417Z,17.70
2019-05-07T14:58:01.846Z,18.00
2019-05-07T15:00:29.889Z,17.80
2019-05-07T15:02:57.830Z,18.40
2019-05-07T15:05:25.926Z,18.80
2019-05-07T15:08:06.615Z,18.30
2019-05-07T15:10:23.851Z,17.10
2019-05-07T15:12:52.290Z,16.30
2019-05-07T15:15:22.009Z,16.80
2019-05-07T15:17:58.369Z,16.80
2019-05-07T15:20:26.946Z,16.80
2019-05-07T15:23:03.765Z,16.20
2019-05-07T15:25:32.177Z,15.70
2019-05-07T15:28:01.892Z,16.50
2019-05-07T15:30:41.778Z,16.20
2019-05-07T15:33:10.045Z,17.10
2019-05-07T15:35:39.199Z,17.50
2019-05-07T15:38:07.264Z,17.50
2019-05-07T15:40:35.481Z,18.10
2019-05-07T15:43:03.449Z,18.40
2019-05-07T15:45:31.512Z,18.20
2019-05-07T15:47:59.439Z,18.30
2019-05-07T15:50:32.240Z,18.00
2019-05-07T15:53:23.168Z,18.80
2019-05-07T15:55:52.272Z,18.80
2019-05-07T15:58:22.690Z,18.30
2019-05-07T16:00:51.742Z,19.10
2019-05-07T16:03:25.285Z,20.10
2019-05-07T16:05:53.377Z,19.50
2019-05-07T16:08:23.648Z,18.80
2019-05-07T16:10:53.106Z,18.80
2019-05-07T16:13:26.339Z,19.20
2019-05-07T16:15:54.428Z,20.00
2019-05-07T16:18:27.725Z,19.90
2019-05-07T16:20:55.925Z,19.80
2019-05-07T16:23:23.944Z,19.60
2019-05-07T16:25:52.786Z,19.70
2019-05-07T16:28:21.910Z,20.60
2019-05-07T16:30:52.112Z,20.40
2019-05-07T16:33:20.575Z,20.90
2019-05-07T16:35:48.631Z,20.70
2019-05-07T16:38:18.149Z,20.20
2019-05-07T16:40:46.280Z,20.60
2019-05-07T16:43:15.403Z,19.90
2019-05-07T16:45:46.777Z,19.40
2019-05-07T16:48:14.875Z,20.00
2019-05-07T16:50:42.910Z,19.90
2019-05-07T16:53:16.215Z,19.90
2019-05-07T16:55:42.995Z,19.30
2019-05-07T16:58:27.163Z,19.00
2019-05-07T17:01:00.143Z,19.00
2019-05-07T17:03:34.678Z,19.20
2019-05-07T17:06:02.738Z,18.70
2019-05-07T17:08:36.420Z,19.40
2019-05-07T17:11:05.503Z,19.90
2019-05-07T17:13:33.870Z,19.90
2019-05-07T17:16:03.386Z,19.70
2019-05-07T17:18:32.661Z,19.40
2019-05-07T17:21:02.062Z,19.50
2019-05-07T17:23:43.637Z,19.50
2019-05-07T17:26:00.799Z,19.10
2019-05-07T17:28:28.748Z,19.40
2019-05-07T17:30:57.191Z,20.20
2019-05-07T17:33:25.231Z,19.80
2019-05-07T17:35:53.548Z,19.60
2019-05-07T17:38:23.044Z,20.60
2019-05-07T17:40:52.176Z,20.40
2019-05-07T17:43:21.947Z,21.00
2019-05-07T17:45:52.242Z,21.10
2019-05-07T17:48:23.040Z,21.40
2019-05-07T17:51:00.748Z,22.90
2019-05-07T17:53:29.270Z,24.10
2019-05-07T17:55:57.435Z,24.40
2019-05-07T17:58:25.396Z,25.60
2019-05-07T18:00:57.244Z,26.00
2019-05-07T18:03:32.687Z,26.20
2019-05-07T18:06:03.192Z,26.10
2019-05-07T18:08:32.486Z,26.20
2019-05-07T18:11:02.335Z,26.00
2019-05-07T18:13:32.397Z,26.60
2019-05-07T18:16:23.178Z,26.00
2019-05-07T18:18:52.035Z,26.20
2019-05-07T18:21:22.030Z,26.90
2019-05-07T18:23:51.748Z,27.10
2019-05-07T18:26:28.067Z,28.20
2019-05-07T18:28:52.107Z,28.10
2019-05-07T18:31:25.227Z,28.60
2019-05-07T18:33:57.048Z,28.90
2019-05-07T18:36:25.194Z,29.60
2019-05-07T18:38:53.613Z,30.00
2019-05-07T18:41:22.340Z,30.50
2019-05-07T18:43:54.432Z,32.10
2019-05-07T18:46:22.168Z,33.20
2019-05-07T18:48:51.834Z,32.70
2019-05-07T18:51:19.967Z,33.30
2019-05-07T18:53:48.118Z,34.70
2019-05-07T18:56:16.283Z,35.40
2019-05-07T18:58:45.385Z,36.40
2019-05-07T19:01:15.254Z,36.40
2019-05-07T19:03:43.854Z,37.50
2019-05-07T19:06:13.378Z,37.60
2019-05-07T19:08:42.347Z,38.60
2019-05-07T19:11:12.269Z,39.30
2019-05-07T19:13:42.222Z,39.60
2019-05-07T19:16:12.444Z,40.10
2019-05-07T19:18:42.862Z,41.20
2019-05-07T19:21:10.507Z,41.10
2019-05-07T19:23:38.752Z,41.40
2019-05-07T19:26:07.781Z,42.40
2019-05-07T19:28:36.417Z,43.50
2019-05-07T19:31:04.757Z,43.90
2019-05-07T19:33:32.962Z,43.40
2019-05-07T19:36:03.865Z,43.10
2019-05-07T19:38:32.430Z,44.00
2019-05-07T19:41:02.268Z,44.80
2019-05-07T19:43:32.391Z,44.70
2019-05-07T19:46:02.754Z,45.30
2019-05-07T19:48:32.289Z,45.50
2019-05-07T19:51:02.747Z,45.60
2019-05-07T19:53:32.667Z,45.80
2019-05-07T19:56:07.650Z,45.60
2019-05-07T19:58:35.903Z,46.70
2019-05-07T20:01:05.885Z,46.80
2019-05-07T20:03:34.046Z,46.50
2019-05-07T20:06:02.555Z,46.50
2019-05-07T20:08:32.295Z,47.50
2019-05-07T20:11:12.074Z,47.90
2019-05-07T20:13:43.583Z,48.00
2019-05-07T20:16:15.575Z,48.80
2019-05-07T20:18:43.876Z,50.20
2019-05-07T20:21:12.640Z,49.80
2019-05-07T20:23:42.595Z,50.60
2019-05-07T20:26:12.611Z,50.30
2019-05-07T20:28:41.737Z,50.20
2019-05-07T20:31:12.202Z,50.30
2019-05-07T20:33:42.187Z,50.90
2019-05-07T20:36:10.546Z,51.10
2019-05-07T20:38:39.099Z,51.70
2019-05-07T20:41:07.289Z,51.00
2019-05-07T20:43:35.918Z,51.00
2019-05-07T20:46:04.030Z,51.00
2019-05-07T20:48:32.627Z,50.10
2019-05-07T20:51:00.883Z,50.10
2019-05-07T20:53:47.008Z,51.00
2019-05-07T20:56:17.058Z,51.10
2019-05-07T20:58:45.209Z,51.10
2019-05-07T21:01:13.388Z,52.00
2019-05-07T21:03:42.906Z,51.60
2019-05-07T21:06:12.027Z,52.40
2019-05-07T21:08:40.138Z,51.00
2019-05-07T21:11:08.128Z,51.30
2019-05-07T21:13:36.189Z,51.70
2019-05-07T21:16:04.566Z,52.10
2019-05-07T21:18:34.360Z,53.40
2019-05-07T21:21:02.429Z,53.80
2019-05-07T21:23:32.421Z,53.40
2019-05-07T21:26:02.201Z,53.00
2019-05-07T21:28:32.339Z,52.30
2019-05-07T21:31:02.595Z,52.30
2019-05-07T21:33:32.256Z,53.80
2019-05-07T21:36:00.200Z,53.80
2019-05-07T21:38:28.252Z,53.70
2019-05-07T21:40:56.237Z,54.00
2019-05-07T21:43:24.225Z,53.40
2019-05-07T21:45:52.981Z,53.90
2019-05-07T21:48:22.291Z,54.60
2019-05-07T21:50:51.995Z,53.80
2019-05-07T21:53:29.032Z,54.80
2019-05-07T21:56:16.609Z,54.60
2019-05-07T21:58:48.226Z,54.60
2019-05-07T22:01:35.894Z,53.70
2019-05-07T22:04:04.081Z,54.30
2019-05-07T22:06:32.161Z,54.10
2019-05-07T22:09:01.968Z,54.50
2019-05-07T22:11:32.437Z,54.70
2019-05-07T22:14:02.083Z,55.10
2019-05-07T22:16:32.219Z,54.60
2019-05-07T22:19:02.535Z,55.60
2019-05-07T22:21:33.914Z,55.80
2019-05-07T22:24:02.649Z,55.30
2019-05-07T22:26:32.171Z,56.70
2019-05-07T22:29:00.179Z,57.30
2019-05-07T22:32:03.257Z,57.10
2019-05-07T22:34:47.346Z,57.90
2019-05-07T22:37:17.231Z,57.10
2019-05-07T22:39:47.085Z,57.50
2019-05-07T22:42:17.024Z,58.10
2019-05-07T22:44:45.023Z,57.20
2019-05-07T22:47:19.332Z,56.90
2019-05-07T22:49:49.792Z,56.70
2019-05-07T22:52:18.836Z,57.00
2019-05-07T22:54:47.626Z,56.60
2019-05-07T22:57:41.874Z,56.80
2019-05-07T23:00:13.681Z,57.50
2019-05-07T23:02:43.534Z,57.80
2019-05-07T23:05:32.408Z,58.00
2019-05-07T23:08:02.395Z,58.20
2019-05-07T23:10:30.410Z,59.90
2019-05-07T23:12:58.380Z,59.20
2019-05-07T23:15:26.294Z,59.90
2019-05-07T23:17:54.315Z,60.40
2019-05-07T23:20:24.353Z,61.60
2019-05-07T23:22:52.320Z,61.40
2019-05-07T23:25:24.265Z,62.80
2019-05-07T23:27:52.311Z,63.40
2019-05-07T23:30:22.240Z,62.90
2019-05-07T23:32:49.916Z,62.80
2019-05-07T23:35:17.848Z,62.90
2019-05-07T23:37:45.864Z,63.30
2019-05-07T23:40:30.523Z,64.70
2019-05-07T23:43:02.856Z,64.40
2019-05-07T23:45:30.966Z,63.70
2019-05-07T23:47:58.859Z,64.10
2019-05-07T23:50:26.812Z,63.50
2019-05-07T23:52:55.906Z,63.00
2019-05-07T23:55:23.868Z,62.60
2019-05-07T23:57:52.578Z,63.30
